Time;durP1;ratioP1;P1;durP2;ratioP2;P2;SDS_P1;SDS_P2;PMS_P1;PMS_P2;Temp;Humidity;BMP_temperature;BMP_pressure;BME280_temperature;BME280_humidity;BME280_pressure;Samples;Min_cycle;Max_cycle;Signal;HPM_P1;HPM_P2
2022/03/13 00:03:41;;;;;;;;;;;5.70;31.40;;;3.32;33.79;101871.34;8269563;28;20016;-84
2022/03/13 00:07:45;;;;;;;;;;;5.50;31.30;;;3.66;33.67;101940.81;8299847;28;20354;-85
2022/03/13 00:11:46;;;;;;;;;;;5.60;31.50;;;3.75;33.60;101964.00;8279568;28;19924;-84
2022/03/13 00:15:51;;;;;;;;;;;5.20;31.30;;;3.23;33.92;101878.28;8295298;28;20380;-85
2022/03/13 00:19:57;;;;;;;;;;;5.50;31.40;;;3.80;34.06;101976.03;8279498;28;20004;-85
2022/03/13 00:23:58;;;;;;;;;;;5.50;31.50;;;3.78;33.82;101981.22;8298348;28;20012;-85
2022/03/13 00:28:00;;;;;;;;;;;5.50;31.60;;;3.66;33.83;101965.78;8300221;28;20008;-85
2022/03/13 00:32:02;;;;;;;;;;;5.40;31.50;;;3.28;34.04;101910.06;8302263;28;20032;-86
2022/03/13 00:36:04;;;;;;;;;;;5.50;31.50;;;3.19;33.86;101890.34;8294830;28;20457;-85
2022/03/13 00:40:06;;;;;;;;;;;5.40;31.50;;;3.44;33.82;101932.34;8295428;28;20389;-86
2022/03/13 00:44:08;;;;;;;;;;;5.40;31.50;;;3.57;34.20;101953.81;8278266;28;20028;-86
2022/03/13 00:48:09;;;;;;;;;;;5.40;31.50;;;3.19;33.86;101897.25;8321025;28;20012;-86
2022/03/13 00:52:10;;;;;;;;;;;5.40;31.50;;;3.18;34.15;101906.69;8305536;28;20015;-86
2022/03/13 00:56:12;;;;;;;;;;;5.30;31.50;;;3.44;34.32;101955.59;8311950;28;20016;-86
2022/03/13 01:00:14;;;;;;;;;;;5.30;31.50;;;3.39;34.13;101957.34;8328449;28;20016;-87
2022/03/13 01:04:17;;;;;;;;;;;5.20;31.40;;;3.39;33.97;101964.22;8294569;28;20015;-88
2022/03/13 01:08:19;;;;;;;;;;;5.10;31.40;;;3.21;33.95;101950.53;8320327;28;20023;-88
2022/03/13 01:12:20;;;;;;;;;;;5.10;31.40;;;3.09;34.13;101945.44;8311140;28;20004;-87
2022/03/13 01:16:25;;;;;;;;;;;5.10;31.40;;;2.66;34.27;101879.41;8312647;28;20008;-88
2022/03/13 01:20:26;;;;;;;;;;;5.00;31.40;;;2.84;34.10;101926.66;8311464;28;20008;-87
2022/03/13 01:24:43;;;;;;;;;;;4.90;31.40;;;3.06;34.06;101974.69;8328588;28;20000;-88
2022/03/13 01:28:45;;;;;;;;;;;4.90;31.40;;;3.00;34.19;101977.31;8317780;28;20020;-87
2022/03/13 01:32:54;;;;;;;;;;;4.80;31.40;;;2.94;33.95;101973.88;8295220;28;20012;-87
2022/03/13 01:36:55;;;;;;;;;;;4.80;31.40;;;2.79;34.37;101959.31;8294959;28;20009;-87
2022/03/13 01:40:57;;;;;;;;;;;4.90;31.50;;;2.21;33.88;101882.97;8327510;28;20019;-87
2022/03/13 01:44:59;;;;;;;;;;;4.40;31.30;;;2.54;34.14;101950.78;8311497;28;20024;-90
2022/03/13 01:49:03;;;;;;;;;;;4.60;31.40;;;2.40;34.25;101943.97;8328771;28;20013;-89
2022/03/13 01:53:04;;;;;;;;;;;4.40;31.40;;;2.47;34.14;101960.25;8328957;28;20007;-91
2022/03/13 01:57:06;;;;;;;;;;;4.40;31.50;;;2.38;34.63;101960.28;8296596;28;20012;-90
2022/03/13 02:01:08;;;;;;;;;;;4.00;31.40;;;2.26;34.39;101947.41;8314987;28;20631;-91
2022/03/13 02:05:22;;;;;;;;;;;4.10;31.50;;;2.18;34.09;101934.50;8297753;28;20011;-89
2022/03/13 02:09:23;;;;;;;;;;;4.20;31.70;;;2.01;34.31;101913.06;8328704;28;20042;-88
2022/03/13 02:13:24;;;;;;;;;;;4.10;31.70;;;2.09;34.23;101945.69;8304494;28;20011;-88
2022/03/13 02:17:35;;;;;;;;;;;4.10;31.70;;;1.99;34.26;101931.09;8328785;28;19988;-88
2022/03/13 02:21:39;;;;;;;;;;;4.10;31.70;;;1.98;34.38;101950.00;8323762;28;19928;-87
2022/03/13 02:25:40;;;;;;;;;;;3.90;31.80;;;1.64;34.10;101902.75;8314598;28;20027;-86
2022/03/13 02:29:42;;;;;;;;;;;3.90;31.80;;;1.72;34.58;101932.78;8309963;28;19996;-86
2022/03/13 02:33:43;;;;;;;;;;;3.80;31.80;;;1.64;34.71;101923.34;8315121;28;19999;-86
2022/03/13 02:37:45;;;;;;;;;;;3.70;31.90;;;1.36;34.67;101881.28;8305238;28;20627;-86
2022/03/13 02:41:46;;;;;;;;;;;3.70;32.00;;;1.56;34.37;101931.06;8327175;28;20449;-86
2022/03/13 02:45:52;;;;;;;;;;;3.70;32.00;;;1.53;34.75;101921.63;8331136;28;20048;-85
2022/03/13 02:49:54;;;;;;;;;;;3.70;32.00;;;1.71;34.27;101951.69;8290676;28;20020;-87
2022/03/13 02:53:56;;;;;;;;;;;3.70;32.10;;;1.75;34.58;101963.69;8315602;28;20442;-86
2022/03/13 02:57:58;;;;;;;;;;;3.70;32.10;;;1.54;34.86;101928.50;8324003;28;20008;-86
2022/03/13 03:02:02;;;;;;;;;;;3.60;32.10;;;1.83;34.34;101975.72;8328627;28;20015;-86
2022/03/13 03:06:03;;;;;;;;;;;3.70;32.00;;;1.57;34.76;101929.34;8307376;28;20008;-86
2022/03/13 03:10:09;;;;;;;;;;;3.70;32.10;;;1.70;35.00;101959.41;8330675;28;19999;-86
2022/03/13 03:14:11;;;;;;;;;;;3.70;32.10;;;1.36;34.67;101907.03;8314719;28;20450;-86
2022/03/13 03:18:14;;;;;;;;;;;3.70;32.10;;;1.42;34.55;101920.75;8321609;28;20360;-87
2022/03/13 03:22:15;;;;;;;;;;;3.70;32.10;;;1.38;34.70;101906.16;8331222;28;20021;-87
2022/03/13 03:26:17;;;;;;;;;;;3.60;32.00;;;1.43;34.66;101921.59;8309855;28;20012;-86
2022/03/13 03:30:22;;;;;;;;;;;3.90;32.10;;;1.49;34.80;101939.66;8330754;28;20005;-86
2022/03/13 03:34:26;;;;;;;;;;;3.30;32.10;;;1.35;34.81;101910.44;8327494;28;20008;-86
2022/03/13 03:38:27;;;;;;;;;;;3.60;32.00;;;1.50;34.71;101942.22;8298319;28;20011;-85
2022/03/13 03:42:29;;;;;;;;;;;3.60;32.10;;;1.62;34.86;101951.69;8324332;28;19925;-86
2022/03/13 03:46:30;;;;;;;;;;;3.60;32.20;;;1.40;34.70;101919.03;8297939;28;20012;-86
2022/03/13 03:50:31;;;;;;;;;;;3.50;32.10;;;1.54;34.80;101943.09;8308661;28;20012;-85
2022/03/13 03:54:33;;;;;;;;;;;3.50;32.10;;;1.32;34.79;101895.84;8330239;28;20016;-85
2022/03/13 03:58:35;;;;;;;;;;;3.50;32.10;;;1.33;34.88;101903.56;8295869;28;20451;-85
2022/03/13 04:02:39;;;;;;;;;;;3.50;32.10;;;1.50;34.96;101925.91;8329252;28;20441;-85
2022/03/13 04:06:41;;;;;;;;;;;3.60;32.20;;;1.32;34.97;101895.84;8312246;28;19996;-85
2022/03/13 04:10:42;;;;;;;;;;;3.60;32.20;;;1.18;34.86;101869.25;8323092;28;20001;-85
2022/03/13 04:14:44;;;;;;;;;;;3.60;32.20;;;1.57;34.82;101937.06;8305067;28;20000;-84
2022/03/13 04:18:45;;;;;;;;;;;3.60;32.20;;;1.56;34.59;101943.94;8310034;28;19996;-84
2022/03/13 04:22:47;;;;;;;;;;;3.50;32.10;;;1.60;35.06;101943.09;8304888;28;19927;-84
2022/03/13 04:26:49;;;;;;;;;;;3.20;32.00;;;1.28;35.07;101897.56;8315713;28;19999;-85
2022/03/13 04:30:53;;;;;;;;;;;3.50;32.10;;;1.42;34.82;101917.31;8321552;28;20465;-85
2022/03/13 04:34:55;;;;;;;;;;;3.40;32.30;;;1.33;34.56;101906.16;8310024;28;20441;-84
2022/03/13 04:38:56;;;;;;;;;;;3.50;32.20;;;1.46;34.65;101934.47;8328152;28;20015;-84
2022/03/13 04:42:58;;;;;;;;;;;3.30;32.20;;;1.33;35.10;101921.59;8324284;28;20007;-84
2022/03/13 04:47:00;;;;;;;;;;;3.40;32.30;;;1.33;35.02;101924.16;8329998;28;20465;-83
2022/03/13 04:51:02;;;;;;;;;;;3.40;32.20;;;1.35;34.98;101926.75;8311341;28;20379;-84
2022/03/13 04:55:05;;;;;;;;;;;3.10;32.10;;;1.17;35.03;101904.41;8311688;28;20433;-83
2022/03/13 04:59:07;;;;;;;;;;;3.30;32.30;;;1.18;35.15;101911.25;8327967;28;20003;-83
2022/03/13 05:03:10;;;;;;;;;;;3.30;32.20;;;1.31;35.31;101940.47;8324683;28;19928;-83
2022/03/13 05:07:11;;;;;;;;;;;3.30;32.40;;;1.16;35.06;101924.97;8328732;28;20019;-83
2022/03/13 05:11:12;;;;;;;;;;;3.30;32.30;;;1.25;35.23;101941.28;8325396;28;20004;-82
2022/03/13 05:15:14;;;;;;;;;;;3.10;32.20;;;1.07;35.09;101918.09;8328657;28;20038;-83
2022/03/13 05:19:15;;;;;;;;;;;3.70;32.50;;;1.31;35.15;101953.31;8328037;28;20379;-83
2022/03/13 05:23:16;;;;;;;;;;;3.40;32.40;;;1.02;35.05;101917.22;8307283;28;19921;-82
2022/03/13 05:27:18;;;;;;;;;;;3.20;32.30;;;1.25;35.00;101971.31;8324117;28;20015;-82
2022/03/13 05:31:19;;;;;;;;;;;3.40;32.40;;;1.16;35.25;101963.56;8319556;28;20003;-82
2022/03/13 05:35:21;;;;;;;;;;;3.20;32.20;;;1.12;35.04;101966.97;8296853;28;20012;-82
2022/03/13 05:39:22;;;;;;;;;;;3.10;32.20;;;1.06;35.04;101967.81;8326368;28;20450;-82
2022/03/13 05:43:25;;;;;;;;;;;3.10;32.20;;;1.07;35.12;101972.09;8318439;28;20004;-82
2022/03/13 05:47:28;;;;;;;;;;;3.00;32.20;;;1.00;35.44;101980.63;8335192;28;20015;-83
2022/03/13 05:51:37;;;;;;;;;;;3.00;32.30;;;0.97;35.38;101985.75;8320010;28;20015;-82
2022/03/13 05:55:43;;;;;;;;;;;3.10;32.30;;;0.54;35.38;101913.56;8318747;28;20011;-83
2022/03/13 05:59:44;;;;;;;;;;;3.00;32.30;;;0.91;35.62;101986.59;8332323;28;20028;-81
2022/03/13 06:03:46;;;;;;;;;;;3.00;32.40;;;0.88;35.33;101986.59;8330658;28;19921;-82
2022/03/13 06:07:48;;;;;;;;;;;3.30;32.70;;;0.65;35.48;101963.34;8314364;28;20343;-82
2022/03/13 06:11:50;;;;;;;;;;;2.90;32.50;;;0.44;35.67;101917.81;8326574;28;20283;-82
2022/03/13 06:15:52;;;;;;;;;;;2.90;32.70;;;0.98;35.22;102000.34;8313576;28;20445;-83
2022/03/13 06:19:55;;;;;;;;;;;2.90;32.70;;;0.61;35.33;101925.59;8329701;28;20344;-83
2022/03/13 06:24:00;;;;;;;;;;;3.00;33.00;;;0.92;35.45;101961.72;8285842;28;19932;-83
2022/03/13 06:28:01;;;;;;;;;;;2.80;32.60;;;1.13;35.47;101994.41;8304416;28;19921;-83
2022/03/13 06:32:03;;;;;;;;;;;3.00;32.70;;;1.22;35.48;102003.03;8312790;28;19924;-83
2022/03/13 06:36:05;;;;;;;;;;;3.20;32.70;;;1.15;35.33;101982.41;8306467;28;19996;-85
2022/03/13 06:40:08;;;;;;;;;;;3.20;32.70;;;1.17;35.60;101976.44;8329115;28;20016;-85
2022/03/13 06:44:09;;;;;;;;;;;3.30;32.70;;;1.17;35.52;101971.28;8329811;28;20379;-85
2022/03/13 06:48:11;;;;;;;;;;;3.30;32.90;;;1.24;35.62;101967.00;8309477;28;20003;-85
2022/03/13 06:52:13;;;;;;;;;;;3.50;32.80;;;1.50;35.67;102005.69;8328411;28;20027;-84
2022/03/13 06:56:15;;;;;;;;;;;3.50;32.80;;;1.62;35.71;102008.31;8310284;28;19989;-82
2022/03/13 07:00:16;;;;;;;;;;;3.30;32.60;;;1.20;35.82;101919.00;8329889;28;20012;-81
2022/03/13 07:04:17;;;;;;;;;;;3.70;32.70;;;1.74;35.54;101979.16;8330057;28;19929;-84
2022/03/13 07:08:19;;;;;;;;;;;3.80;32.80;;;2.00;35.83;101999.81;8309246;28;20445;-83
2022/03/13 07:12:24;;;;;;;;;;;3.60;32.80;;;2.13;35.80;102001.53;8320213;28;20580;-82
2022/03/13 07:16:26;;;;;;;;;;;4.10;33.00;;;2.28;35.52;101992.06;8323754;28;20015;-82
2022/03/13 07:20:28;;;;;;;;;;;4.20;32.90;;;2.14;35.81;101962.00;8328532;28;20367;-86
2022/03/13 07:24:29;;;;;;;;;;;4.30;32.80;;;2.12;35.38;101930.22;8310537;28;20507;-81
2022/03/13 07:28:31;;;;;;;;;;;4.50;33.00;;;2.53;35.90;101974.84;8309817;28;19932;-85
2022/03/13 07:32:32;;;;;;;;;;;4.80;32.80;;;2.37;35.80;101932.78;8305192;28;20035;-80
2022/03/13 07:36:34;;;;;;;;;;;4.80;32.80;;;2.92;35.82;101994.53;8326989;28;20020;-83
2022/03/13 07:40:36;;;;;;;;;;;4.90;32.70;;;3.02;35.49;101993.63;8323751;28;19917;-80
2022/03/13 07:44:42;;;;;;;;;;;5.00;32.60;;;3.20;36.12;101990.13;8328192;28;19921;-81
2022/03/13 07:48:44;;;;;;;;;;;5.00;32.50;;;2.86;35.82;101914.56;8327779;28;20023;-83
2022/03/13 07:52:45;;;;;;;;;;;5.30;32.50;;;3.51;35.73;101990.84;8325179;28;20436;-82
2022/03/13 07:56:47;;;;;;;;;;;5.40;32.50;;;3.66;35.55;101989.03;8290669;28;19921;-83
2022/03/13 08:00:50;;;;;;;;;;;5.60;32.50;;;3.59;35.72;101946.88;8313557;28;19966;-82
2022/03/13 08:04:51;;;;;;;;;;;5.70;32.40;;;3.95;35.63;101974.19;8322545;28;19925;-83
2022/03/13 08:08:54;;;;;;;;;;;5.90;32.00;;;4.09;35.62;101963.75;8305230;28;19917;-84
2022/03/13 08:12:55;;;;;;;;;;;6.10;32.10;;;4.51;35.88;101986.63;8299154;28;19952;-84
2022/03/13 08:16:56;;;;;;;;;;;6.30;32.20;;;4.61;35.79;101957.22;8278764;28;19921;-84
2022/03/13 08:20:58;;;;;;;;;;;6.60;32.40;;;5.04;35.68;101980.88;8293374;28;19921;-83
2022/03/13 08:24:59;;;;;;;;;;;6.90;32.30;;;5.31;35.86;101982.25;8322981;28;20293;-82
2022/03/13 08:29:01;;;;;;;;;;;7.20;32.40;;;5.60;35.34;101968.06;8313109;28;20438;-81
2022/03/13 08:33:03;;;;;;;;;;;7.40;32.40;;;5.80;35.95;101953.94;8314667;28;19928;-81
2022/03/13 08:37:04;;;;;;;;;;;7.60;32.00;;;5.68;35.94;101885.88;8321984;28;19928;-80
2022/03/13 08:41:06;;;;;;;;;;;8.10;31.90;;;5.88;35.47;101867.41;8322136;28;19921;-80
2022/03/13 08:45:08;;;;;;;;;;;8.50;32.30;;;6.71;36.01;101966.25;8297733;28;19931;-79
2022/03/13 08:49:11;;;;;;;;;;;8.60;32.20;;;6.77;35.41;101928.03;8321479;28;19928;-80
2022/03/13 08:53:13;;;;;;;;;;;8.80;30.90;;;7.17;35.37;101955.78;8306666;28;19921;-79
2022/03/13 08:57:14;;;;;;;;;;;9.10;31.40;;;7.49;35.24;101962.88;8313155;28;19943;-80
2022/03/13 09:01:16;;;;;;;;;;;9.40;30.50;;;7.24;35.20;101889.84;8320258;28;19921;-79
2022/03/13 09:05:17;;;;;;;;;;;9.60;31.00;;;7.82;35.19;101955.19;8301121;28;19930;-79
2022/03/13 09:09:20;;;;;;;;;;;9.70;29.00;;;7.96;34.90;101942.69;8304887;28;21972;-80
2022/03/13 09:13:22;;;;;;;;;;;9.90;30.60;;;8.21;35.22;101952.53;8317018;28;19928;-79
2022/03/13 09:17:23;;;;;;;;;;;10.20;29.90;;;8.06;34.79;101896.50;8303832;28;19921;-85
2022/03/13 09:21:26;;;;;;;;;;;10.30;30.60;;;8.47;34.84;101935.38;8310577;28;22806;-78
2022/03/13 09:25:28;;;;;;;;;;;10.50;30.60;;;8.69;34.62;101938.25;8318774;28;19931;-78
2022/03/13 09:29:29;;;;;;;;;;;10.70;30.30;;;8.70;34.49;101904.38;8302087;28;19987;-79
2022/03/13 09:33:31;;;;;;;;;;;10.90;30.30;;;8.95;34.65;101911.47;8320777;28;19931;-81
2022/03/13 09:37:32;;;;;;;;;;;11.10;30.30;;;9.42;34.75;101956.94;8320239;28;19921;-81
2022/03/13 09:41:35;;;;;;;;;;;11.30;29.10;;;9.52;34.44;101926.22;8305092;28;19921;-81
2022/03/13 09:45:36;;;;;;;;;;;11.50;29.40;;;9.35;34.22;101871.19;8309033;28;20301;-81
2022/03/13 09:49:40;;;;;;;;;;;11.70;27.40;;;10.02;33.72;101952.47;8319851;28;20613;-81
2022/03/13 09:53:41;;;;;;;;;;;11.80;28.80;;;9.99;34.11;101923.84;8317439;28;19935;-81
2022/03/13 09:57:43;;;;;;;;;;;11.90;28.00;;;9.87;33.78;101878.13;8319294;28;19935;-81
2022/03/13 10:01:45;;;;;;;;;;;12.20;29.20;;;10.18;34.09;101901.44;8315280;28;19920;-81
2022/03/13 10:05:48;;;;;;;;;;;12.30;29.30;;;10.59;33.49;101943.56;8301813;28;19925;-81
2022/03/13 10:09:50;;;;;;;;;;;12.40;29.10;;;10.37;33.51;101872.13;8314481;28;19921;-81
2022/03/13 10:13:52;;;;;;;;;;;12.60;29.30;;;10.82;33.64;101926.19;8304949;28;19920;-81
2022/03/13 10:17:53;;;;;;;;;;;12.70;29.40;;;10.98;33.80;101922.09;8308505;28;19947;-80
2022/03/13 10:22:00;;;;;;;;;;;12.90;28.80;;;10.85;33.71;101872.06;8323980;28;19924;-81
2022/03/13 10:26:05;;;;;;;;;;;13.10;29.80;;;11.33;33.70;101925.13;8332331;28;19925;-81
2022/03/13 10:30:08;;;;;;;;;;;13.20;29.40;;;11.39;32.94;101909.16;8262676;28;20051;-80
2022/03/13 10:34:10;;;;;;;;;;;13.30;28.50;;;11.38;33.66;101886.56;8302874;28;19921;-81
2022/03/13 10:38:19;;;;;;;;;;;13.40;28.50;;;11.72;33.22;101924.47;8305973;28;20011;-81
2022/03/13 10:42:30;;;;;;;;;;;13.60;28.40;;;11.80;33.17;101911.03;8311296;28;19939;-81
2022/03/13 10:46:36;;;;;;;;;;;13.70;28.20;;;11.91;33.00;101908.88;8297207;28;19933;-81
2022/03/13 10:50:45;;;;;;;;;;;13.80;28.50;;;12.04;33.04;101915.28;8297285;28;19948;-82
2022/03/13 10:54:49;;;;;;;;;;;13.90;29.30;;;11.65;32.83;101834.88;8323282;28;19927;-83
2022/03/13 10:58:52;;;;;;;;;;;14.00;27.50;;;12.22;32.93;101918.03;8297620;28;19921;-82
2022/03/13 11:02:55;;;;;;;;;;;14.10;28.90;;;11.78;32.25;101827.38;8322872;28;19920;-82
2022/03/13 11:06:56;;;;;;;;;;;14.20;29.30;;;12.31;32.64;101894.94;8295444;28;20321;-81
2022/03/13 11:10:58;;;;;;;;;;;14.30;27.80;;;12.49;32.30;101908.13;8303997;28;19931;-81
2022/03/13 11:15:01;;;;;;;;;;;14.30;28.20;;;12.40;32.51;101873.56;8312237;28;19921;-81
2022/03/13 11:19:05;;;;;;;;;;;14.60;28.70;;;12.36;32.25;101845.78;8303735;28;19931;-81
2022/03/13 11:23:08;;;;;;;;;;;14.20;28.80;;;12.84;32.52;101903.91;8295111;28;19925;-81
2022/03/13 11:27:11;;;;;;;;;;;14.40;28.80;;;12.99;32.43;101902.38;8311228;28;19935;-81
2022/03/13 11:31:40;;;;;;;;;;;14.70;29.20;;;13.11;32.56;101896.53;8303378;28;19924;-81
2022/03/13 11:36:31;;;;;;;;;;;14.90;25.40;;;13.22;32.09;101898.66;8318299;28;19932;-81
2022/03/13 11:40:53;;;;;;;;;;;15.00;27.50;;;13.26;32.03;101879.28;8305685;28;19931;-81
2022/03/13 11:45:30;;;;;;;;;;;15.00;28.70;;;13.39;31.82;101885.59;8302534;28;20826;-81
2022/03/13 11:49:52;;;;;;;;;;;15.10;27.60;;;13.37;32.00;101865.66;8314714;28;19925;-81
2022/03/13 11:54:35;;;;;;;;;;;15.20;27.40;;;13.51;31.68;101876.31;8320571;28;20396;-82
2022/03/13 11:59:14;;;;;;;;;;;15.50;28.50;;;13.59;32.06;101866.28;8318037;28;19928;-82
2022/03/13 12:03:35;;;;;;;;;;;15.40;28.60;;;13.70;31.86;101868.38;8304659;28;20362;-83
2022/03/13 12:08:04;;;;;;;;;;;15.80;28.60;;;13.65;31.79;101847.59;8320021;28;19925;-81
2022/03/13 12:12:26;;;;;;;;;;;15.50;29.00;;;13.81;31.65;101852.94;8320180;28;19931;-81
2022/03/13 12:17:05;;;;;;;;;;;15.60;28.10;;;13.88;31.71;101851.69;8319166;28;19921;-81
2022/03/13 12:21:26;;;;;;;;;;;15.60;27.50;;;13.87;31.54;101833.38;8305902;28;19921;-81
2022/03/13 12:25:48;;;;;;;;;;;15.40;28.50;;;13.91;31.53;101813.94;8318267;28;19917;-81
2022/03/13 12:30:11;;;;;;;;;;;15.80;27.00;;;13.83;31.12;101805.59;8325585;28;20007;-81
2022/03/13 12:34:32;;;;;;;;;;;15.80;26.70;;;14.13;31.21;101839.94;8326709;28;20012;-81
2022/03/13 12:38:55;;;;;;;;;;;15.80;26.40;;;14.03;31.03;101808.03;8324133;28;20008;-81
2022/03/13 12:43:16;;;;;;;;;;;15.90;27.60;;;14.16;31.38;101824.00;8326722;28;20374;-81
2022/03/13 12:47:42;;;;;;;;;;;15.90;26.80;;;14.24;31.12;101834.94;8315515;28;20323;-80
2022/03/13 12:52:13;;;;;;;;;;;16.00;26.50;;;14.28;31.00;101822.50;8328070;28;19991;-80
2022/03/13 12:56:42;;;;;;;;;;;16.00;25.40;;;14.39;30.63;101830.66;8324366;28;20004;-81
2022/03/13 13:01:17;;;;;;;;;;;16.10;26.90;;;14.42;30.67;101814.75;8311892;28;19920;-82
2022/03/13 13:05:50;;;;;;;;;;;16.50;27.90;;;14.52;30.96;101820.31;8304264;28;19943;-80
2022/03/13 13:10:11;;;;;;;;;;;16.30;28.10;;;14.43;30.74;101784.03;8307171;28;19941;-80
2022/03/13 13:14:33;;;;;;;;;;;16.30;26.80;;;14.62;30.47;101821.56;8305122;28;19921;-80
2022/03/13 13:18:56;;;;;;;;;;;16.30;26.60;;;14.53;30.67;101798.41;8300276;28;19927;-80
2022/03/13 13:23:18;;;;;;;;;;;16.30;27.30;;;14.68;30.68;101802.81;8290570;28;19925;-80
2022/03/13 13:27:45;;;;;;;;;;;16.00;27.40;;;14.73;30.73;101819.19;8312949;28;20514;-80
2022/03/13 13:32:28;;;;;;;;;;;16.40;27.40;;;14.64;30.77;101782.91;8314169;28;19920;-80
2022/03/13 13:37:07;;;;;;;;;;;16.40;28.40;;;14.78;30.55;101808.44;8312939;28;19927;-80
2022/03/13 13:41:29;;;;;;;;;;;16.40;27.60;;;14.82;30.63;101800.28;8314179;28;19928;-80
2022/03/13 13:46:01;;;;;;;;;;;16.60;27.60;;;14.67;30.68;101766.94;8280540;28;19924;-81
2022/03/13 13:50:26;;;;;;;;;;;16.50;28.00;;;14.76;30.48;101770.84;8309890;28;19948;-81
2022/03/13 13:54:47;;;;;;;;;;;16.30;28.10;;;14.96;30.65;101794.25;8310090;28;19935;-81
2022/03/13 13:59:18;;;;;;;;;;;16.60;28.00;;;14.71;30.57;101746.59;8307847;28;19917;-81
2022/03/13 14:03:39;;;;;;;;;;;16.60;28.00;;;14.87;30.76;101763.19;8313995;28;19921;-81
2022/03/13 14:08:01;;;;;;;;;;;16.50;27.70;;;15.07;30.47;101787.50;8324004;28;19931;-81
2022/03/13 14:12:22;;;;;;;;;;;16.70;28.10;;;14.97;30.38;101759.09;8307787;28;19921;-81
2022/03/13 14:16:44;;;;;;;;;;;16.70;27.50;;;15.15;30.47;101783.53;8324182;28;19921;-81
2022/03/13 14:21:06;;;;;;;;;;;16.80;28.00;;;15.22;30.05;101776.94;8295455;28;19921;-81
2022/03/13 14:25:28;;;;;;;;;;;16.80;26.60;;;15.16;30.35;101776.47;8313139;28;19927;-80
2022/03/13 14:29:52;;;;;;;;;;;16.80;26.10;;;15.20;30.37;101776.22;8313053;28;19929;-81
2022/03/13 14:34:25;;;;;;;;;;;16.60;26.80;;;15.29;30.34;101780.09;8304540;28;20656;-81
2022/03/13 14:38:50;;;;;;;;;;;17.00;27.60;;;15.12;30.36;101753.91;8323207;28;19927;-82
2022/03/13 14:43:15;;;;;;;;;;;16.80;26.10;;;15.29;30.48;101785.34;8323480;28;19924;-81
2022/03/13 14:47:37;;;;;;;;;;;16.90;27.70;;;15.29;30.20;101785.34;8316604;28;19929;-81
2022/03/13 14:51:59;;;;;;;;;;;16.80;26.30;;;15.10;30.13;101740.00;8318517;28;20320;-80
2022/03/13 14:56:21;;;;;;;;;;;16.80;26.90;;;15.32;30.15;101768.53;8322247;28;19917;-81
2022/03/13 15:00:42;;;;;;;;;;;16.90;27.80;;;15.27;30.43;101766.16;8328082;28;19925;-81
2022/03/13 15:05:05;;;;;;;;;;;16.60;26.50;;;15.27;29.96;101766.16;8328474;28;19924;-81
2022/03/13 15:09:26;;;;;;;;;;;16.90;27.90;;;15.28;30.09;101759.97;8309258;28;19936;-81
2022/03/13 15:13:48;;;;;;;;;;;16.90;28.00;;;15.37;29.79;101774.38;8327585;28;19917;-81
2022/03/13 15:18:09;;;;;;;;;;;16.80;27.10;;;15.21;30.29;101751.59;8310672;28;19947;-80
2022/03/13 15:22:32;;;;;;;;;;;16.90;27.80;;;15.21;29.94;101756.84;8305405;28;19921;-82
2022/03/13 15:26:54;;;;;;;;;;;16.70;27.30;;;15.34;30.07;101770.16;8304263;28;20008;-82
2022/03/13 15:31:16;;;;;;;;;;;16.90;27.20;;;15.35;30.29;101771.00;8307133;28;20004;-82
2022/03/13 15:35:38;;;;;;;;;;;16.90;27.40;;;15.24;29.91;101745.31;8306025;28;20346;-81
2022/03/13 15:40:04;;;;;;;;;;;16.90;27.90;;;15.24;29.89;101755.81;8303081;28;19918;-81
2022/03/13 15:44:26;;;;;;;;;;;16.90;27.80;;;15.25;29.97;101753.09;8299792;28;19921;-81
2022/03/13 15:48:47;;;;;;;;;;;16.90;28.00;;;15.33;30.06;101767.59;8304246;28;20380;-82
2022/03/13 15:53:11;;;;;;;;;;;16.90;28.10;;;15.15;29.71;101748.44;8306373;28;19925;-81
2022/03/13 15:57:33;;;;;;;;;;;16.80;27.10;;;14.88;30.43;101709.69;8311014;28;19927;-82
2022/03/13 16:01:55;;;;;;;;;;;16.90;27.90;;;15.10;30.07;101747.91;8324942;28;19917;-82
2022/03/13 16:06:17;;;;;;;;;;;17.00;28.30;;;15.17;29.88;101772.91;8297224;28;19960;-81
2022/03/13 16:10:41;;;;;;;;;;;16.70;27.90;;;15.08;29.90;101758.50;8322024;28;19932;-85
2022/03/13 16:15:05;;;;;;;;;;;16.70;28.00;;;14.96;29.96;101735.50;8290554;28;20649;-79
2022/03/13 16:19:27;;;;;;;;;;;16.70;27.90;;;15.04;29.92;101764.84;8301189;28;19956;-86
2022/03/13 16:23:49;;;;;;;;;;;16.70;28.20;;;14.89;29.98;101736.81;8293466;28;19925;-81
2022/03/13 16:28:11;;;;;;;;;;;16.70;28.20;;;14.99;29.99;101780.91;8314985;28;19939;-81
2022/03/13 16:32:33;;;;;;;;;;;16.60;28.20;;;14.97;29.70;101789.84;8319974;28;20394;-81
2022/03/13 16:36:54;;;;;;;;;;;16.50;27.50;;;14.72;29.93;101759.66;8321675;28;19920;-81
2022/03/13 16:41:16;;;;;;;;;;;16.80;28.40;;;14.85;29.99;101801.03;8319772;28;19925;-82
2022/03/13 16:45:39;;;;;;;;;;;16.40;27.60;;;14.73;29.88;101802.56;8314709;28;19935;-81
2022/03/13 16:50:02;;;;;;;;;;;16.40;27.80;;;14.59;29.71;101787.56;8319939;28;19932;-81
2022/03/13 16:54:24;;;;;;;;;;;16.20;26.90;;;14.56;29.75;101801.72;8319179;28;19924;-81
2022/03/13 16:58:46;;;;;;;;;;;16.20;27.80;;;14.39;29.87;101783.34;8303265;28;19925;-81
2022/03/13 17:03:07;;;;;;;;;;;16.10;27.70;;;14.34;29.73;101798.53;8313754;28;20305;-81
2022/03/13 17:07:35;;;;;;;;;;;16.00;28.00;;;14.31;29.61;101817.06;8297857;28;19931;-81
2022/03/13 17:11:57;;;;;;;;;;;15.90;28.20;;;14.23;29.84;101814.00;8318648;28;19921;-81
2022/03/13 17:16:18;;;;;;;;;;;15.70;28.30;;;13.97;29.84;101797.84;8314743;28;19921;-82
2022/03/13 17:20:40;;;;;;;;;;;15.70;27.80;;;13.72;29.79;101772.03;8313895;28;19943;-81
2022/03/13 17:25:03;;;;;;;;;;;15.50;28.00;;;13.76;29.74;101793.72;8317735;28;20408;-81
2022/03/13 17:29:25;;;;;;;;;;;15.50;27.70;;;13.79;29.74;101811.91;8296651;28;19931;-82
2022/03/13 17:33:46;;;;;;;;;;;15.40;28.00;;;13.79;29.73;101830.31;8312391;28;20515;-82
2022/03/13 17:38:08;;;;;;;;;;;15.30;27.90;;;13.65;29.69;101833.63;8288143;28;19932;-81
2022/03/13 17:42:29;;;;;;;;;;;15.20;27.80;;;13.40;29.62;101815.63;8313137;28;19921;-82
2022/03/13 17:46:52;;;;;;;;;;;15.00;28.20;;;13.32;29.66;101821.25;8302540;28;19927;-81
2022/03/13 17:51:13;;;;;;;;;;;14.90;28.30;;;13.27;29.69;101831.13;8286314;28;20408;-81
2022/03/13 17:55:36;;;;;;;;;;;14.80;28.20;;;13.11;29.61;101830.97;8321402;28;20338;-81
2022/03/13 17:59:59;;;;;;;;;;;14.70;28.00;;;12.85;29.66;101806.00;8316260;28;20374;-81
2022/03/13 18:04:21;;;;;;;;;;;14.50;28.50;;;12.84;29.80;101841.84;8316444;28;19921;-82
2022/03/13 18:08:42;;;;;;;;;;;14.30;28.00;;;12.50;29.57;101811.13;8313451;28;19932;-82
2022/03/13 18:13:04;;;;;;;;;;;14.20;28.60;;;12.48;29.98;101833.09;8301625;28;19936;-84
2022/03/13 18:17:26;;;;;;;;;;;14.10;28.10;;;12.47;29.61;101847.94;8317314;28;19921;-80
2022/03/13 18:21:49;;;;;;;;;;;14.00;28.40;;;12.38;29.83;101849.19;8317241;28;19921;-83
2022/03/13 18:26:13;;;;;;;;;;;13.90;28.50;;;12.23;29.79;101844.63;8298972;28;20404;-82
2022/03/13 18:30:36;;;;;;;;;;;13.80;28.40;;;12.11;29.96;101845.19;8294186;28;20015;-82
2022/03/13 18:34:58;;;;;;;;;;;13.70;28.40;;;12.05;30.05;101840.22;8311738;28;19922;-82
2022/03/13 18:39:20;;;;;;;;;;;13.70;27.60;;;12.03;29.62;101839.44;8296691;28;19939;-82
2022/03/13 18:43:41;;;;;;;;;;;13.50;28.00;;;11.59;30.20;101774.97;8320555;28;20317;-82
2022/03/13 18:48:03;;;;;;;;;;;13.50;27.60;;;12.00;29.67;101847.44;8338834;28;19928;-82
2022/03/13 18:52:25;;;;;;;;;;;13.50;28.00;;;11.81;29.73;101829.00;8317008;28;19925;-81
2022/03/13 18:56:46;;;;;;;;;;;13.50;28.70;;;11.78;29.53;101844.84;8311772;28;19962;-81
2022/03/13 19:01:09;;;;;;;;;;;13.20;26.80;;;11.75;29.65;101837.97;8318805;28;19921;-81
2022/03/13 19:05:31;;;;;;;;;;;13.40;27.70;;;11.81;29.56;101852.56;8317177;28;19928;-82
2022/03/13 19:09:52;;;;;;;;;;;13.10;27.70;;;11.68;29.34;101841.75;8309947;28;20405;-82
2022/03/13 19:14:14;;;;;;;;;;;13.30;27.60;;;11.69;29.92;101854.78;8316267;28;19921;-82